sensor_id;sensor_type;location;lat;lon;timestamp;pressure;altitude;pressure_sealevel;temperature
70668;BMP280;58242;51.250;-1.118;2023-06-24T00:01:23;101098.97;;;24.58
70668;BMP280;58242;51.250;-1.118;2023-06-24T00:03:49;101104.44;;;24.54
70668;BMP280;58242;51.250;-1.118;2023-06-24T00:06:18;101113.38;;;24.38
70668;BMP280;58242;51.250;-1.118;2023-06-24T00:08:49;101105.56;;;24.43
70668;BMP280;58242;51.250;-1.118;2023-06-24T00:11:15;101103.63;;;24.40
70668;BMP280;58242;51.250;-1.118;2023-06-24T00:13:41;101099.72;;;24.38
70668;BMP280;58242;51.250;-1.118;2023-06-24T00:16:07;101110.25;;;24.36
70668;BMP280;58242;51.250;-1.118;2023-06-24T00:18:33;101104.41;;;24.31
70668;BMP280;58242;51.250;-1.118;2023-06-24T00:20:59;101105.16;;;24.28
70668;BMP280;58242;51.250;-1.118;2023-06-24T00:23:27;101107.09;;;24.24
70668;BMP280;58242;51.250;-1.118;2023-06-24T00:25:53;101104.00;;;24.18
70668;BMP280;58242;51.250;-1.118;2023-06-24T00:28:19;101104.00;;;24.15
70668;BMP280;58242;51.250;-1.118;2023-06-24T00:30:44;101091.06;;;24.12
70668;BMP280;58242;51.250;-1.118;2023-06-24T00:33:10;101096.94;;;24.07
70668;BMP280;58242;51.250;-1.118;2023-06-24T00:35:38;101095.38;;;24.03
70668;BMP280;58242;51.250;-1.118;2023-06-24T00:38:03;101092.63;;;24.00
70668;BMP280;58242;51.250;-1.118;2023-06-24T00:40:29;101086.75;;;23.98
70668;BMP280;58242;51.250;-1.118;2023-06-24T00:42:55;101087.53;;;23.95
70668;BMP280;58242;51.250;-1.118;2023-06-24T00:45:22;101083.66;;;23.92
70668;BMP280;58242;51.250;-1.118;2023-06-24T00:47:47;101078.97;;;23.89
70668;BMP280;58242;51.250;-1.118;2023-06-24T00:50:14;101080.09;;;23.85
70668;BMP280;58242;51.250;-1.118;2023-06-24T00:52:40;101082.03;;;23.81
70668;BMP280;58242;51.250;-1.118;2023-06-24T00:55:11;101078.09;;;23.79
70668;BMP280;58242;51.250;-1.118;2023-06-24T00:57:41;101085.13;;;23.76
70668;BMP280;58242;51.250;-1.118;2023-06-24T01:00:07;101081.59;;;23.72
70668;BMP280;58242;51.250;-1.118;2023-06-24T01:02:41;101082.38;;;23.69
70668;BMP280;58242;51.250;-1.118;2023-06-24T01:05:08;101082.75;;;23.68
70668;BMP280;58242;51.250;-1.118;2023-06-24T01:07:35;101081.59;;;23.66
70668;BMP280;58242;51.250;-1.118;2023-06-24T01:10:02;101089.38;;;23.64
70668;BMP280;58242;51.250;-1.118;2023-06-24T01:12:37;101085.09;;;23.63
70668;BMP280;58242;51.250;-1.118;2023-06-24T01:15:07;101089.75;;;23.59
70668;BMP280;58242;51.250;-1.118;2023-06-24T01:17:46;101081.16;;;23.57
70668;BMP280;58242;51.250;-1.118;2023-06-24T01:20:27;101087.38;;;23.54
70668;BMP280;58242;51.250;-1.118;2023-06-24T01:23:17;101073.31;;;23.52
70668;BMP280;58242;51.250;-1.118;2023-06-24T01:31:41;101069.78;;;23.41
70668;BMP280;58242;51.250;-1.118;2023-06-24T01:36:37;101077.59;;;23.39
70668;BMP280;58242;51.250;-1.118;2023-06-24T01:39:06;101074.44;;;23.37
70668;BMP280;58242;51.250;-1.118;2023-06-24T01:41:47;101069.75;;;23.34
70668;BMP280;58242;51.250;-1.118;2023-06-24T01:44:15;101061.94;;;23.33
70668;BMP280;58242;51.250;-1.118;2023-06-24T01:46:44;101064.28;;;23.31
70668;BMP280;58242;51.250;-1.118;2023-06-24T01:49:13;101067.00;;;23.28
70668;BMP280;58242;51.250;-1.118;2023-06-24T01:51:41;101070.50;;;23.25
70668;BMP280;58242;51.250;-1.118;2023-06-24T01:54:11;101071.66;;;23.24
70668;BMP280;58242;51.250;-1.118;2023-06-24T01:56:39;101068.88;;;23.20
70668;BMP280;58242;51.250;-1.118;2023-06-24T01:59:05;101074.31;;;23.17
70668;BMP280;58242;51.250;-1.118;2023-06-24T02:01:35;101077.03;;;23.14
70668;BMP280;58242;51.250;-1.118;2023-06-24T02:04:03;101070.78;;;23.10
70668;BMP280;58242;51.250;-1.118;2023-06-24T02:06:29;101084.41;;;23.06
70668;BMP280;58242;51.250;-1.118;2023-06-24T02:08:56;101085.13;;;23.03
70668;BMP280;58242;51.250;-1.118;2023-06-24T02:11:24;101077.72;;;23.00
70668;BMP280;58242;51.250;-1.118;2023-06-24T02:13:50;101072.66;;;22.99
70668;BMP280;58242;51.250;-1.118;2023-06-24T02:16:17;101074.19;;;22.97
70668;BMP280;58242;51.250;-1.118;2023-06-24T02:18:44;101078.84;;;22.96
70668;BMP280;58242;51.250;-1.118;2023-06-24T02:21:10;101081.19;;;22.94
70668;BMP280;58242;51.250;-1.118;2023-06-24T02:23:39;101074.97;;;22.94
70668;BMP280;58242;51.250;-1.118;2023-06-24T02:26:06;101072.59;;;22.92
70668;BMP280;58242;51.250;-1.118;2023-06-24T02:28:32;101074.94;;;22.90
70668;BMP280;58242;51.250;-1.118;2023-06-24T02:30:59;101080.41;;;22.90
70668;BMP280;58242;51.250;-1.118;2023-06-24T02:33:25;101068.69;;;22.90
70668;BMP280;58242;51.250;-1.118;2023-06-24T02:35:52;101073.38;;;22.89
70668;BMP280;58242;51.250;-1.118;2023-06-24T02:38:17;101076.09;;;22.89
70668;BMP280;58242;51.250;-1.118;2023-06-24T02:40:45;101068.28;;;22.88
70668;BMP280;58242;51.250;-1.118;2023-06-24T02:43:11;101067.09;;;22.85
70668;BMP280;58242;51.250;-1.118;2023-06-24T02:45:37;101064.00;;;22.83
70668;BMP280;58242;51.250;-1.118;2023-06-24T02:48:03;101060.47;;;22.83
70668;BMP280;58242;51.250;-1.118;2023-06-24T02:50:30;101063.22;;;22.83
70668;BMP280;58242;51.250;-1.118;2023-06-24T02:52:55;101056.19;;;22.82
70668;BMP280;58242;51.250;-1.118;2023-06-24T02:55:22;101062.78;;;22.81
70668;BMP280;58242;51.250;-1.118;2023-06-24T02:57:48;101063.19;;;22.80
70668;BMP280;58242;51.250;-1.118;2023-06-24T03:00:13;101054.22;;;22.79
70668;BMP280;58242;51.250;-1.118;2023-06-24T03:02:41;101057.31;;;22.78
70668;BMP280;58242;51.250;-1.118;2023-06-24T03:05:08;101059.66;;;22.76
70668;BMP280;58242;51.250;-1.118;2023-06-24T03:07:34;101060.03;;;22.74
70668;BMP280;58242;51.250;-1.118;2023-06-24T03:10:02;101056.91;;;22.72
70668;BMP280;58242;51.250;-1.118;2023-06-24T03:12:28;101059.63;;;22.72
70668;BMP280;58242;51.250;-1.118;2023-06-24T03:14:54;101057.66;;;22.73
70668;BMP280;58242;51.250;-1.118;2023-06-24T03:17:19;101060.78;;;22.71
70668;BMP280;58242;51.250;-1.118;2023-06-24T03:19:45;101058.84;;;22.72
70668;BMP280;58242;51.250;-1.118;2023-06-24T03:22:11;101068.22;;;22.74
70668;BMP280;58242;51.250;-1.118;2023-06-24T03:24:36;101068.22;;;22.74
70668;BMP280;58242;51.250;-1.118;2023-06-24T03:27:01;101070.56;;;22.76
70668;BMP280;58242;51.250;-1.118;2023-06-24T03:29:27;101075.63;;;22.77
70668;BMP280;58242;51.250;-1.118;2023-06-24T03:31:53;101074.09;;;22.80
70668;BMP280;58242;51.250;-1.118;2023-06-24T03:34:18;101066.28;;;22.78
70668;BMP280;58242;51.250;-1.118;2023-06-24T03:36:44;101057.72;;;22.80
70668;BMP280;58242;51.250;-1.118;2023-06-24T03:39:09;101065.50;;;22.81
70668;BMP280;58242;51.250;-1.118;2023-06-24T03:41:34;101064.78;;;22.84
70668;BMP280;58242;51.250;-1.118;2023-06-24T03:44:00;101069.06;;;22.85
70668;BMP280;58242;51.250;-1.118;2023-06-24T03:46:25;101069.06;;;22.85
70668;BMP280;58242;51.250;-1.118;2023-06-24T03:48:51;101072.56;;;22.85
70668;BMP280;58242;51.250;-1.118;2023-06-24T03:51:16;101067.91;;;22.86
70668;BMP280;58242;51.250;-1.118;2023-06-24T03:53:42;101072.59;;;22.89
70668;BMP280;58242;51.250;-1.118;2023-06-24T03:56:07;101073.00;;;22.91
70668;BMP280;58242;51.250;-1.118;2023-06-24T03:58:32;101071.06;;;22.95
70668;BMP280;58242;51.250;-1.118;2023-06-24T04:01:00;101077.72;;;23.00
70668;BMP280;58242;51.250;-1.118;2023-06-24T04:03:25;101078.53;;;23.04
70668;BMP280;58242;51.250;-1.118;2023-06-24T04:05:53;101075.81;;;23.08
70668;BMP280;58242;51.250;-1.118;2023-06-24T04:08:18;101074.66;;;23.09
70668;BMP280;58242;51.250;-1.118;2023-06-24T04:10:43;101078.56;;;23.11
70668;BMP280;58242;51.250;-1.118;2023-06-24T04:13:09;101080.56;;;23.14
70668;BMP280;58242;51.250;-1.118;2023-06-24T04:15:34;101082.09;;;23.15
70668;BMP280;58242;51.250;-1.118;2023-06-24T04:18:00;101084.03;;;23.18
70668;BMP280;58242;51.250;-1.118;2023-06-24T04:20:25;101090.34;;;23.22
70668;BMP280;58242;51.250;-1.118;2023-06-24T04:22:50;101079.44;;;23.22
70668;BMP280;58242;51.250;-1.118;2023-06-24T04:25:16;101082.94;;;23.22
70668;BMP280;58242;51.250;-1.118;2023-06-24T04:27:41;101083.34;;;23.24
70668;BMP280;58242;51.250;-1.118;2023-06-24T04:30:06;101087.66;;;23.25
70668;BMP280;58242;51.250;-1.118;2023-06-24T04:32:32;101090.78;;;23.31
70668;BMP280;58242;51.250;-1.118;2023-06-24T04:34:59;101090.00;;;23.33
70668;BMP280;58242;51.250;-1.118;2023-06-24T04:37:26;101094.69;;;23.33
70668;BMP280;58242;51.250;-1.118;2023-06-24T04:39:51;101093.16;;;23.35
70668;BMP280;58242;51.250;-1.118;2023-06-24T04:42:16;101107.19;;;23.37
70668;BMP280;58242;51.250;-1.118;2023-06-24T04:44:42;101090.06;;;23.40
70668;BMP280;58242;51.250;-1.118;2023-06-24T04:47:07;101090.88;;;23.44
70668;BMP280;58242;51.250;-1.118;2023-06-24T04:49:32;101096.72;;;23.46
70668;BMP280;58242;51.250;-1.118;2023-06-24T04:52:01;101097.88;;;23.48
70668;BMP280;58242;51.250;-1.118;2023-06-24T04:54:26;101095.56;;;23.50
70668;BMP280;58242;51.250;-1.118;2023-06-24T04:56:52;101096.72;;;23.53
70668;BMP280;58242;51.250;-1.118;2023-06-24T04:59:20;101082.31;;;23.56
70668;BMP280;58242;51.250;-1.118;2023-06-24T05:01:45;101096.00;;;23.59
70668;BMP280;58242;51.250;-1.118;2023-06-24T05:04:11;101093.28;;;23.63
70668;BMP280;58242;51.250;-1.118;2023-06-24T05:06:36;101086.63;;;23.67
70668;BMP280;58242;51.250;-1.118;2023-06-24T05:09:01;101096.81;;;23.70
70668;BMP280;58242;51.250;-1.118;2023-06-24T05:11:27;101085.91;;;23.73
70668;BMP280;58242;51.250;-1.118;2023-06-24T05:13:52;101083.97;;;23.77
70668;BMP280;58242;51.250;-1.118;2023-06-24T05:16:17;101091.00;;;23.82
70668;BMP280;58242;51.250;-1.118;2023-06-24T05:18:44;101084.34;;;23.86
70668;BMP280;58242;51.250;-1.118;2023-06-24T05:21:10;101091.84;;;23.89
70668;BMP280;58242;51.250;-1.118;2023-06-24T05:23:36;101094.16;;;23.90
70668;BMP280;58242;51.250;-1.118;2023-06-24T05:26:01;101095.34;;;23.93
70668;BMP280;58242;51.250;-1.118;2023-06-24T05:28:26;101089.50;;;23.94
70668;BMP280;58242;51.250;-1.118;2023-06-24T05:30:52;101094.97;;;23.98
70668;BMP280;58242;51.250;-1.118;2023-06-24T05:33:17;101091.47;;;24.01
70668;BMP280;58242;51.250;-1.118;2023-06-24T05:35:43;101096.94;;;24.04
70668;BMP280;58242;51.250;-1.118;2023-06-24T05:38:08;101094.59;;;24.09
70668;BMP280;58242;51.250;-1.118;2023-06-24T05:40:34;101091.09;;;24.16
70668;BMP280;58242;51.250;-1.118;2023-06-24T05:42:59;101098.91;;;24.20
70668;BMP280;58242;51.250;-1.118;2023-06-24T05:45:26;101087.59;;;24.29
70668;BMP280;58242;51.250;-1.118;2023-06-24T05:47:51;101096.59;;;24.33
70668;BMP280;58242;51.250;-1.118;2023-06-24T05:50:16;101090.31;;;24.39
70668;BMP280;58242;51.250;-1.118;2023-06-24T05:52:42;101097.38;;;24.47
70668;BMP280;58242;51.250;-1.118;2023-06-24T05:55:07;101094.69;;;24.53
70668;BMP280;58242;51.250;-1.118;2023-06-24T05:57:32;101089.59;;;24.59
70668;BMP280;58242;51.250;-1.118;2023-06-24T05:59:58;101093.50;;;24.65
70668;BMP280;58242;51.250;-1.118;2023-06-24T06:02:23;101091.94;;;24.70
70668;BMP280;58242;51.250;-1.118;2023-06-24T06:04:49;101093.50;;;24.78
70668;BMP280;58242;51.250;-1.118;2023-06-24T06:07:15;101092.31;;;24.86
70668;BMP280;58242;51.250;-1.118;2023-06-24T06:09:40;101091.91;;;24.94
70668;BMP280;58242;51.250;-1.118;2023-06-24T06:12:06;101092.69;;;25.02
70668;BMP280;58242;51.250;-1.118;2023-06-24T06:14:32;101095.00;;;25.10
70668;BMP280;58242;51.250;-1.118;2023-06-24T06:16:57;101095.38;;;25.15
70668;BMP280;58242;51.250;-1.118;2023-06-24T06:19:22;101105.16;;;25.20
70668;BMP280;58242;51.250;-1.118;2023-06-24T06:21:49;101098.88;;;25.26
70668;BMP280;58242;51.250;-1.118;2023-06-24T06:24:15;101098.88;;;25.33
70668;BMP280;58242;51.250;-1.118;2023-06-24T06:26:42;101099.22;;;25.41
70668;BMP280;58242;51.250;-1.118;2023-06-24T06:29:08;101109.38;;;25.51
70668;BMP280;58242;51.250;-1.118;2023-06-24T06:31:33;101096.41;;;25.62
70668;BMP280;58242;51.250;-1.118;2023-06-24T06:33:58;101105.75;;;25.71
70668;BMP280;58242;51.250;-1.118;2023-06-24T06:36:24;101099.47;;;25.77
70668;BMP280;58242;51.250;-1.118;2023-06-24T06:38:49;101099.47;;;25.84
70668;BMP280;58242;51.250;-1.118;2023-06-24T06:41:14;101110.38;;;25.91
70668;BMP280;58242;51.250;-1.118;2023-06-24T06:43:40;101116.19;;;26.03
70668;BMP280;58242;51.250;-1.118;2023-06-24T06:46:06;101114.16;;;26.14
70668;BMP280;58242;51.250;-1.118;2023-06-24T06:48:31;101110.97;;;26.22
70668;BMP280;58242;51.250;-1.118;2023-06-24T06:50:57;101112.50;;;26.30
70668;BMP280;58242;51.250;-1.118;2023-06-24T06:53:22;101114.03;;;26.34
70668;BMP280;58242;51.250;-1.118;2023-06-24T06:55:47;101119.06;;;26.42
70668;BMP280;58242;51.250;-1.118;2023-06-24T06:58:12;101116.22;;;26.59
70668;BMP280;58242;51.250;-1.118;2023-06-24T07:00:38;101116.00;;;26.80
70668;BMP280;58242;51.250;-1.118;2023-06-24T07:03:03;101119.78;;;26.96
70668;BMP280;58242;51.250;-1.118;2023-06-24T07:05:28;101117.06;;;27.35
70668;BMP280;58242;51.250;-1.118;2023-06-24T07:07:54;101114.38;;;27.94
70668;BMP280;58242;51.250;-1.118;2023-06-24T07:10:19;101115.44;;;28.54
70668;BMP280;58242;51.250;-1.118;2023-06-24T07:12:45;101115.22;;;29.13
70668;BMP280;58242;51.250;-1.118;2023-06-24T07:15:11;101115.16;;;29.57
70668;BMP280;58242;51.250;-1.118;2023-06-24T07:17:36;101109.50;;;29.83
70668;BMP280;58242;51.250;-1.118;2023-06-24T07:20:02;101122.56;;;29.98
70668;BMP280;58242;51.250;-1.118;2023-06-24T07:22:27;101115.19;;;30.11
70668;BMP280;58242;51.250;-1.118;2023-06-24T07:24:53;101120.88;;;30.20
70668;BMP280;58242;51.250;-1.118;2023-06-24T07:27:18;101124.25;;;30.27
70668;BMP280;58242;51.250;-1.118;2023-06-24T07:29:43;101131.31;;;30.28
70668;BMP280;58242;51.250;-1.118;2023-06-24T07:32:08;101124.00;;;30.22
70668;BMP280;58242;51.250;-1.118;2023-06-24T07:34:34;101122.84;;;30.19
70668;BMP280;58242;51.250;-1.118;2023-06-24T07:36:59;101113.72;;;30.41
70668;BMP280;58242;51.250;-1.118;2023-06-24T07:39:25;101113.53;;;30.63
70668;BMP280;58242;51.250;-1.118;2023-06-24T07:41:50;101108.03;;;30.63
70668;BMP280;58242;51.250;-1.118;2023-06-24T07:44:15;101099.81;;;30.60
70668;BMP280;58242;51.250;-1.118;2023-06-24T07:46:41;101095.75;;;30.64
70668;BMP280;58242;51.250;-1.118;2023-06-24T07:49:06;101107.06;;;30.70
70668;BMP280;58242;51.250;-1.118;2023-06-24T07:51:31;101109.06;;;30.85
70668;BMP280;58242;51.250;-1.118;2023-06-24T07:53:57;101113.66;;;31.19
70668;BMP280;58242;51.250;-1.118;2023-06-24T07:56:22;101109.94;;;31.53
70668;BMP280;58242;51.250;-1.118;2023-06-24T07:58:47;101111.66;;;31.75
70668;BMP280;58242;51.250;-1.118;2023-06-24T08:01:13;101114.72;;;32.04
70668;BMP280;58242;51.250;-1.118;2023-06-24T08:03:38;101118.19;;;32.32
70668;BMP280;58242;51.250;-1.118;2023-06-24T08:06:03;101116.06;;;32.61
70668;BMP280;58242;51.250;-1.118;2023-06-24T08:08:29;101121.28;;;32.83
70668;BMP280;58242;51.250;-1.118;2023-06-24T08:10:54;101127.69;;;32.92
70668;BMP280;58242;51.250;-1.118;2023-06-24T08:13:20;101117.56;;;32.98
70668;BMP280;58242;51.250;-1.118;2023-06-24T08:15:45;101124.06;;;33.16
70668;BMP280;58242;51.250;-1.118;2023-06-24T08:18:10;101119.50;;;33.76
70668;BMP280;58242;51.250;-1.118;2023-06-24T08:20:36;101122.81;;;34.42
70668;BMP280;58242;51.250;-1.118;2023-06-24T08:23:01;101128.56;;;35.12
70668;BMP280;58242;51.250;-1.118;2023-06-24T08:25:27;101123.34;;;35.67
70668;BMP280;58242;51.250;-1.118;2023-06-24T08:27:52;101123.00;;;35.82
70668;BMP280;58242;51.250;-1.118;2023-06-24T08:30:17;101133.25;;;35.76
70668;BMP280;58242;51.250;-1.118;2023-06-24T08:32:43;101123.56;;;36.12
70668;BMP280;58242;51.250;-1.118;2023-06-24T08:35:09;101127.97;;;36.68
70668;BMP280;58242;51.250;-1.118;2023-06-24T08:37:36;101124.78;;;36.92
70668;BMP280;58242;51.250;-1.118;2023-06-24T08:40:01;101119.81;;;36.87
70668;BMP280;58242;51.250;-1.118;2023-06-24T08:42:26;101114.53;;;36.66
70668;BMP280;58242;51.250;-1.118;2023-06-24T08:44:52;101114.34;;;36.38
70668;BMP280;58242;51.250;-1.118;2023-06-24T08:47:18;101116.25;;;36.24
70668;BMP280;58242;51.250;-1.118;2023-06-24T08:49:53;101116.00;;;36.13
70668;BMP280;58242;51.250;-1.118;2023-06-24T08:52:21;101112.22;;;36.25
70668;BMP280;58242;51.250;-1.118;2023-06-24T08:54:50;101102.72;;;36.40
70668;BMP280;58242;51.250;-1.118;2023-06-24T08:57:16;101104.88;;;36.45
70668;BMP280;58242;51.250;-1.118;2023-06-24T08:59:42;101100.88;;;36.37
70668;BMP280;58242;51.250;-1.118;2023-06-24T09:02:08;101091.53;;;36.80
70668;BMP280;58242;51.250;-1.118;2023-06-24T09:04:34;101093.03;;;37.64
70668;BMP280;58242;51.250;-1.118;2023-06-24T09:07:00;101100.66;;;38.53
70668;BMP280;58242;51.250;-1.118;2023-06-24T09:09:25;101095.63;;;39.49
70668;BMP280;58242;51.250;-1.118;2023-06-24T09:11:53;101092.56;;;40.27
70668;BMP280;58242;51.250;-1.118;2023-06-24T09:14:22;101090.75;;;40.59
70668;BMP280;58242;51.250;-1.118;2023-06-24T09:17:05;101095.84;;;40.55
70668;BMP280;58242;51.250;-1.118;2023-06-24T09:19:30;101095.59;;;40.99
70668;BMP280;58242;51.250;-1.118;2023-06-24T09:22:08;101083.50;;;41.40
70668;BMP280;58242;51.250;-1.118;2023-06-24T09:24:35;101086.34;;;41.50
70668;BMP280;58242;51.250;-1.118;2023-06-24T09:27:01;101091.00;;;41.75
70668;BMP280;58242;51.250;-1.118;2023-06-24T09:29:34;101085.41;;;42.23
70668;BMP280;58242;51.250;-1.118;2023-06-24T09:32:04;101083.47;;;42.95
70668;BMP280;58242;51.250;-1.118;2023-06-24T09:34:29;101086.44;;;43.18
70668;BMP280;58242;51.250;-1.118;2023-06-24T09:36:56;101082.09;;;43.17
70668;BMP280;58242;51.250;-1.118;2023-06-24T09:39:22;101085.56;;;42.89
70668;BMP280;58242;51.250;-1.118;2023-06-24T09:41:53;101083.06;;;42.48
70668;BMP280;58242;51.250;-1.118;2023-06-24T09:44:19;101084.13;;;42.02
70668;BMP280;58242;51.250;-1.118;2023-06-24T09:46:45;101085.34;;;41.59
70668;BMP280;58242;51.250;-1.118;2023-06-24T09:49:10;101080.38;;;41.22
70668;BMP280;58242;51.250;-1.118;2023-06-24T09:51:42;101075.38;;;40.90
70668;BMP280;58242;51.250;-1.118;2023-06-24T09:54:10;101067.88;;;40.66
70668;BMP280;58242;51.250;-1.118;2023-06-24T09:56:37;101071.47;;;40.66
70668;BMP280;58242;51.250;-1.118;2023-06-24T09:59:06;101067.97;;;40.87
70668;BMP280;58242;51.250;-1.118;2023-06-24T10:01:33;101071.22;;;41.27
70668;BMP280;58242;51.250;-1.118;2023-06-24T10:04:01;101060.84;;;41.59
70668;BMP280;58242;51.250;-1.118;2023-06-24T10:06:27;101054.25;;;41.83
70668;BMP280;58242;51.250;-1.118;2023-06-24T10:08:53;101051.66;;;42.12
70668;BMP280;58242;51.250;-1.118;2023-06-24T10:11:18;101054.75;;;42.25
70668;BMP280;58242;51.250;-1.118;2023-06-24T10:13:44;101044.75;;;42.35
70668;BMP280;58242;51.250;-1.118;2023-06-24T10:16:09;101039.63;;;42.44
70668;BMP280;58242;51.250;-1.118;2023-06-24T10:21:01;101044.94;;;43.35
70668;BMP280;58242;51.250;-1.118;2023-06-24T10:23:32;101054.50;;;43.60
70668;BMP280;58242;51.250;-1.118;2023-06-24T10:25:58;101042.16;;;43.69
70668;BMP280;58242;51.250;-1.118;2023-06-24T10:28:23;101046.25;;;43.68
70668;BMP280;58242;51.250;-1.118;2023-06-24T10:30:55;101041.69;;;43.88
70668;BMP280;58242;51.250;-1.118;2023-06-24T10:33:22;101041.66;;;43.93
70668;BMP280;58242;51.250;-1.118;2023-06-24T10:35:48;101042.16;;;43.97
70668;BMP280;58242;51.250;-1.118;2023-06-24T10:38:13;101039.91;;;43.91
70668;BMP280;58242;51.250;-1.118;2023-06-24T10:40:41;101039.06;;;43.95
70668;BMP280;58242;51.250;-1.118;2023-06-24T10:43:26;101026.72;;;44.04
70668;BMP280;58242;51.250;-1.118;2023-06-24T10:45:53;101014.91;;;44.05
70668;BMP280;58242;51.250;-1.118;2023-06-24T10:48:19;101015.97;;;44.26
70668;BMP280;58242;51.250;-1.118;2023-06-24T10:50:48;101023.03;;;44.61
70668;BMP280;58242;51.250;-1.118;2023-06-24T10:53:14;101013.13;;;44.96
70668;BMP280;58242;51.250;-1.118;2023-06-24T10:55:40;101006.63;;;45.00
70668;BMP280;58242;51.250;-1.118;2023-06-24T10:58:12;100996.97;;;45.63
70668;BMP280;58242;51.250;-1.118;2023-06-24T11:00:39;101004.41;;;46.21
70668;BMP280;58242;51.250;-1.118;2023-06-24T11:03:22;101010.47;;;46.00
70668;BMP280;58242;51.250;-1.118;2023-06-24T11:05:48;101006.84;;;46.00
70668;BMP280;58242;51.250;-1.118;2023-06-24T11:08:14;101001.94;;;46.56
70668;BMP280;58242;51.250;-1.118;2023-06-24T11:10:46;101000.88;;;47.17
70668;BMP280;58242;51.250;-1.118;2023-06-24T11:13:12;101002.16;;;47.28
70668;BMP280;58242;51.250;-1.118;2023-06-24T11:15:39;100991.72;;;46.53
70668;BMP280;58242;51.250;-1.118;2023-06-24T11:18:07;100982.78;;;45.50
70668;BMP280;58242;51.250;-1.118;2023-06-24T11:20:33;100989.22;;;44.78
70668;BMP280;58242;51.250;-1.118;2023-06-24T11:22:58;100981.25;;;44.59
70668;BMP280;58242;51.250;-1.118;2023-06-24T11:25:24;100977.66;;;45.18
70668;BMP280;58242;51.250;-1.118;2023-06-24T11:27:52;100973.81;;;45.95
70668;BMP280;58242;51.250;-1.118;2023-06-24T11:30:20;100971.66;;;46.64
70668;BMP280;58242;51.250;-1.118;2023-06-24T11:32:46;100968.31;;;46.65
70668;BMP280;58242;51.250;-1.118;2023-06-24T11:35:13;100974.75;;;45.84
70668;BMP280;58242;51.250;-1.118;2023-06-24T11:37:46;100970.06;;;45.74
70668;BMP280;58242;51.250;-1.118;2023-06-24T11:40:13;100959.91;;;46.22
70668;BMP280;58242;51.250;-1.118;2023-06-24T11:42:39;100968.06;;;46.88
70668;BMP280;58242;51.250;-1.118;2023-06-24T11:45:07;100959.75;;;47.56
70668;BMP280;58242;51.250;-1.118;2023-06-24T11:47:34;100954.13;;;47.43
70668;BMP280;58242;51.250;-1.118;2023-06-24T11:50:01;100953.50;;;46.59
70668;BMP280;58242;51.250;-1.118;2023-06-24T11:55:01;100942.16;;;46.59
70668;BMP280;58242;51.250;-1.118;2023-06-24T12:00:25;100947.06;;;47.76
70668;BMP280;58242;51.250;-1.118;2023-06-24T12:02:52;100941.19;;;48.49
70668;BMP280;58242;51.250;-1.118;2023-06-24T12:05:29;100945.28;;;48.41
70668;BMP280;58242;51.250;-1.118;2023-06-24T12:08:00;100943.47;;;47.49
70668;BMP280;58242;51.250;-1.118;2023-06-24T12:10:27;100947.09;;;47.04
70668;BMP280;58242;51.250;-1.118;2023-06-24T12:12:52;100936.78;;;47.26
70668;BMP280;58242;51.250;-1.118;2023-06-24T12:15:18;100937.16;;;47.83
70668;BMP280;58242;51.250;-1.118;2023-06-24T12:17:43;100938.19;;;48.20
70668;BMP280;58242;51.250;-1.118;2023-06-24T12:20:09;100934.66;;;48.34
70668;BMP280;58242;51.250;-1.118;2023-06-24T12:22:36;100941.84;;;47.60
70668;BMP280;58242;51.250;-1.118;2023-06-24T12:25:01;100932.53;;;47.53
70668;BMP280;58242;51.250;-1.118;2023-06-24T12:27:27;100933.19;;;47.86
70668;BMP280;58242;51.250;-1.118;2023-06-24T12:29:53;100925.72;;;48.23
70668;BMP280;58242;51.250;-1.118;2023-06-24T12:32:19;100919.59;;;48.11
70668;BMP280;58242;51.250;-1.118;2023-06-24T12:34:44;100929.41;;;47.63
70668;BMP280;58242;51.250;-1.118;2023-06-24T12:37:09;100924.06;;;47.40
70668;BMP280;58242;51.250;-1.118;2023-06-24T12:39:35;100924.69;;;47.66
70668;BMP280;58242;51.250;-1.118;2023-06-24T12:42:00;100921.56;;;47.76
70668;BMP280;58242;51.250;-1.118;2023-06-24T12:44:26;100914.41;;;48.03
70668;BMP280;58242;51.250;-1.118;2023-06-24T12:46:52;100919.06;;;48.47
70668;BMP280;58242;51.250;-1.118;2023-06-24T12:49:18;100919.38;;;48.79
70668;BMP280;58242;51.250;-1.118;2023-06-24T12:51:43;100913.72;;;48.44
70668;BMP280;58242;51.250;-1.118;2023-06-24T12:54:09;100905.28;;;47.50
70668;BMP280;58242;51.250;-1.118;2023-06-24T12:56:34;100905.88;;;46.70
70668;BMP280;58242;51.250;-1.118;2023-06-24T12:58:59;100907.38;;;46.01
70668;BMP280;58242;51.250;-1.118;2023-06-24T13:01:25;100913.72;;;45.33
70668;BMP280;58242;51.250;-1.118;2023-06-24T13:03:50;100922.75;;;44.60
70668;BMP280;58242;51.250;-1.118;2023-06-24T13:06:16;100913.84;;;43.91
70668;BMP280;58242;51.250;-1.118;2023-06-24T13:08:42;100904.84;;;43.35
70668;BMP280;58242;51.250;-1.118;2023-06-24T13:11:08;100906.66;;;42.99
70668;BMP280;58242;51.250;-1.118;2023-06-24T13:13:34;100909.41;;;42.70
70668;BMP280;58242;51.250;-1.118;2023-06-24T13:15:59;100905.19;;;42.37
70668;BMP280;58242;51.250;-1.118;2023-06-24T13:18:25;100898.88;;;42.10
70668;BMP280;58242;51.250;-1.118;2023-06-24T13:20:50;100899.97;;;41.85
70668;BMP280;58242;51.250;-1.118;2023-06-24T13:23:16;100890.81;;;41.64
70668;BMP280;58242;51.250;-1.118;2023-06-24T13:25:41;100894.38;;;41.48
70668;BMP280;58242;51.250;-1.118;2023-06-24T13:28:07;100896.97;;;41.46
70668;BMP280;58242;51.250;-1.118;2023-06-24T13:30:32;100888.00;;;41.64
70668;BMP280;58242;51.250;-1.118;2023-06-24T13:32:58;100887.97;;;41.85
70668;BMP280;58242;51.250;-1.118;2023-06-24T13:35:23;100890.28;;;41.86
70668;BMP280;58242;51.250;-1.118;2023-06-24T13:37:48;100892.03;;;41.73
70668;BMP280;58242;51.250;-1.118;2023-06-24T13:40:14;100885.44;;;41.55
70668;BMP280;58242;51.250;-1.118;2023-06-24T13:42:40;100886.44;;;41.36
70668;BMP280;58242;51.250;-1.118;2023-06-24T13:45:06;100888.00;;;41.15
70668;BMP280;58242;51.250;-1.118;2023-06-24T13:47:32;100879.25;;;40.97
70668;BMP280;58242;51.250;-1.118;2023-06-24T13:49:57;100880.78;;;40.77
70668;BMP280;58242;51.250;-1.118;2023-06-24T13:52:25;100877.13;;;40.55
70668;BMP280;58242;51.250;-1.118;2023-06-24T13:54:51;100874.25;;;40.34
70668;BMP280;58242;51.250;-1.118;2023-06-24T13:57:16;100867.00;;;40.11